TAF LDZA 170525Z 1706/1806 VRB02KT CAVOK
                 TX29/1713Z TN16/1803Z=
TAF LDZA 162325Z 1700/1800 VRB02KT CAVOK
                 TX30/1713Z TN16/1703Z=
TAF LDZA 161725Z 1618/1718 04008KT CAVOK
                 TX30/1713Z TN16/1703Z
           BECMG 1618/1620 VRB02KT=
TAF LDZA 161125Z 1612/1712 05008KT 9999 SCT040
                 TX30/1711Z TN16/1703Z
           BECMG 1615/1617 VRB02KT=
TAF LDZA 160525Z 1606/1706 05003KT CAVOK
                 TX30/1613Z TN16/1703Z
    PROB40 TEMPO 1607/1615 05008KT=
TAF LDZA 152325Z 1600/1700 05003KT CAVOK
                 TX30/1613Z TN15/1603Z
           TEMPO 1607/1615 05008KT=